CDT,Max TemperatureF,Mean TemperatureF,Min TemperatureF,Max Dew PointF,MeanDew PointF,Min DewpointF,Max Humidity, Mean Humidity, Min Humidity, Max Sea Level PressureIn, Mean Sea Level PressureIn, Min Sea Level PressureIn, Max VisibilityMiles, Mean VisibilityMiles, Min VisibilityMiles, Max Wind SpeedMPH, Mean Wind SpeedMPH, Max Gust SpeedMPH,PrecipitationIn, CloudCover, Events, WindDirDegrees
2013-8-1,102,88,75,75,72,68,94,64,35,30.07,30.00,29.93,10,9,6,10,5,,0.04,0,Thunderstorm,181
2013-8-2,100,88,75,72,69,64,89,59,34,30.02,29.98,29.93,10,10,9,10,4,18,0.00,0,,159
2013-8-3,98,86,73,75,69,63,100,62,30,30.08,30.03,29.99,10,10,2,12,5,16,0.00,0,,171
2013-8-4,98,86,75,75,72,66,100,63,35,30.14,30.06,29.97,10,10,7,10,5,,0.00,1,,180
2013-8-5,100,88,75,75,70,63,94,60,29,30.09,30.01,29.92,10,10,9,14,6,21,0.00,1,,195
2013-8-6,102,88,75,75,70,64,94,59,31,30.01,29.95,29.86,10,10,10,14,8,20,0.00,2,,196
2013-8-7,102,88,75,75,69,63,94,59,27,29.98,29.92,29.84,10,8,4,17,7,21,0.00,1,,187
2013-8-8,102,88,73,73,68,55,100,58,21,29.97,29.91,29.83,10,8,4,14,7,23,0.00,1,,185
2013-8-9,102,88,73,73,67,57,94,59,22,30.02,29.95,29.90,10,8,4,10,5,,0.00,1,,179
2013-8-10,102,88,75,75,71,64,94,64,29,30.09,30.03,29.95,10,10,9,15,4,24,0.00,0,Thunderstorm,125
2013-8-11,98,86,73,75,71,64,100,70,32,30.13,30.07,30.00,10,9,0,15,3,22,0.00,2,Fog,160
2013-8-12,98,86,73,75,70,64,100,62,32,30.12,30.05,29.97,10,10,8,13,5,25,0.00,1,,205
2013-8-13,102,88,75,75,70,61,94,60,27,30.08,30.00,29.91,10,10,9,15,6,21,0.00,1,,208
2013-8-14,93,82,71,75,72,70,94,74,46,30.05,29.99,29.94,10,10,2,21,4,30,0.18,1,Rain-Thunderstorm,44
2013-8-15,91,82,73,73,67,61,94,68,40,30.09,30.02,29.97,10,10,3,10,4,,0.01,3,,53
2013-8-16,89,78,68,73,65,57,89,65,49,30.07,30.01,29.97,10,10,2,12,5,16,0.07,1,Rain-Thunderstorm,55
2013-8-17,91,78,66,63,59,54,83,57,28,30.09,30.04,29.97,10,10,10,15,7,21,0.00,1,,28
2013-8-18,93,78,64,70,61,55,94,60,28,30.09,30.04,30.00,10,10,8,10,3,,0.00,0,,40
2013-8-19,95,82,68,66,63,57,88,58,28,30.10,30.03,29.96,10,10,9,8,3,,0.00,1,,119
2013-8-20,96,82,69,70,64,55,88,57,25,30.08,30.03,29.98,10,10,10,13,3,16,0.00,2,,131
2013-8-21,96,82,69,72,67,63,100,63,32,30.15,30.08,30.00,10,10,9,8,2,,0.00,1,,119
2013-8-22,98,86,75,73,71,64,94,67,32,30.14,30.06,29.96,10,10,10,9,2,,0.00,1,,98
2013-8-23,98,86,73,73,70,64,94,66,32,30.07,30.01,29.92,10,10,7,9,2,,0.01,0,Thunderstorm,53
2013-8-24,98,86,73,73,69,63,94,61,32,30.09,30.03,29.98,10,10,3,16,3,25,0.02,1,Thunderstorm,69
2013-8-25,96,84,73,72,68,63,89,62,32,30.17,30.11,30.06,10,10,10,18,5,23,0.00,0,,86
2013-8-26,93,83,73,73,71,66,94,77,41,30.20,30.15,30.09,10,10,3,20,6,25,0.00,1,,97
2013-8-27,95,83,71,72,67,64,94,65,36,30.18,30.11,30.05,10,10,10,9,3,,0.00,1,,131
2013-8-28,96,82,69,72,68,66,94,65,37,30.15,30.08,30.01,10,9,2,8,2,,0.00,1,,279
2013-8-29,100,88,75,72,66,61,83,54,27,30.11,30.04,29.97,10,10,10,9,4,,0.00,1,,134
2013-8-30,102,88,75,73,67,59,94,55,24,30.05,29.98,29.90,10,10,8,9,4,,0.00,0,,145
2013-8-31,100,88,75,73,70,64,94,60,31,29.98,29.92,29.84,10,10,6,12,6,17,0.00,0,,179